createdAt,value
2023-03-11T00:01:19.404Z,97685.50
2023-03-11T00:03:45.786Z,97703.75
2023-03-11T00:06:12.299Z,97706.13
2023-03-11T00:08:38.729Z,97690.28
2023-03-11T00:11:05.313Z,97702.34
2023-03-11T00:13:32.118Z,97699.75
2023-03-11T00:16:01.621Z,97706.84
2023-03-11T00:18:29.643Z,97703.06
2023-03-11T00:20:57.873Z,97718.88
2023-03-11T00:23:25.818Z,97715.97
2023-03-11T00:25:52.572Z,97718.09
2023-03-11T00:28:18.992Z,97722.56
2023-03-11T00:30:47.018Z,97731.81
2023-03-11T00:33:16.491Z,97738.56
2023-03-11T00:35:43.806Z,97729.66
2023-03-11T00:38:14.013Z,97729.66
2023-03-11T00:40:40.522Z,97728.97
2023-03-11T00:43:08.690Z,97739.06
2023-03-11T00:45:35.155Z,97727.69
2023-03-11T00:48:01.627Z,97744.31
2023-03-11T00:50:33.464Z,97736.06
2023-03-11T00:53:00.639Z,97736.25
2023-03-11T00:55:30.381Z,97743.81
2023-03-11T00:57:59.613Z,97728.63
2023-03-11T01:00:27.690Z,97739.38
2023-03-11T01:02:54.998Z,97740.38
2023-03-11T01:05:24.619Z,97744.63
2023-03-11T01:07:51.373Z,97751.72
2023-03-11T01:10:18.215Z,97742.16
2023-03-11T01:12:45.200Z,97755.53
2023-03-11T01:15:18.615Z,97744.78
2023-03-11T01:17:45.111Z,97742.16
2023-03-11T01:20:12.580Z,97738.09
2023-03-11T01:22:39.788Z,97735.25
2023-03-11T01:25:06.571Z,97738.38
2023-03-11T01:27:32.864Z,97754.03
2023-03-11T01:29:59.584Z,97741.00
2023-03-11T01:32:26.372Z,97762.09
2023-03-11T01:34:55.200Z,97766.53
2023-03-11T01:37:21.690Z,97772.16
2023-03-11T01:39:48.067Z,97774.13
2023-03-11T01:42:14.388Z,97756.19
2023-03-11T01:44:41.079Z,97771.00
2023-03-11T01:47:12.081Z,97779.09
2023-03-11T01:49:39.781Z,97766.09
2023-03-11T01:52:08.101Z,97786.66
2023-03-11T01:54:40.597Z,97786.19
2023-03-11T01:57:12.200Z,97772.53
2023-03-11T01:59:46.088Z,97763.16
2023-03-11T02:02:22.956Z,97771.41
2023-03-11T02:04:51.282Z,97754.94
2023-03-11T02:07:18.002Z,97766.47
2023-03-11T02:09:44.890Z,97776.19
2023-03-11T02:12:14.502Z,97768.81
2023-03-11T02:14:45.594Z,97760.25
2023-03-11T02:17:12.411Z,97779.06
2023-03-11T02:19:56.098Z,97781.69
2023-03-11T02:22:23.408Z,97804.88
2023-03-11T02:25:15.737Z,97800.78
2023-03-11T02:27:46.948Z,97790.25
2023-03-11T02:30:14.066Z,97784.47
2023-03-11T02:32:43.305Z,97789.59
2023-03-11T02:35:10.062Z,97806.53
2023-03-11T02:37:36.456Z,97795.19
2023-03-11T02:40:36.394Z,97790.41
2023-03-11T02:43:09.645Z,97818.22
2023-03-11T02:45:40.146Z,97805.72
2023-03-11T02:48:08.850Z,97801.09
2023-03-11T02:50:35.704Z,97783.84
2023-03-11T02:53:02.060Z,97794.34
2023-03-11T02:55:28.759Z,97801.09
2023-03-11T02:57:55.064Z,97799.78
2023-03-11T03:00:21.986Z,97803.72
2023-03-11T03:02:48.987Z,97791.53
2023-03-11T03:05:15.435Z,97795.81
2023-03-11T03:07:41.796Z,97791.03
2023-03-11T03:10:09.102Z,97799.75
2023-03-11T03:12:35.547Z,97805.47
2023-03-11T03:15:02.043Z,97817.31
2023-03-11T03:17:30.849Z,97824.56
2023-03-11T03:19:57.333Z,97818.44
2023-03-11T03:22:23.697Z,97827.81
2023-03-11T03:24:50.074Z,97838.81
2023-03-11T03:27:16.449Z,97836.50
2023-03-11T03:29:43.070Z,97847.66
2023-03-11T03:32:09.622Z,97850.44
2023-03-11T03:34:36.088Z,97837.75
2023-03-11T03:37:03.724Z,97842.50
2023-03-11T03:39:30.814Z,97833.81
2023-03-11T03:41:57.289Z,97837.75
2023-03-11T03:44:23.765Z,97842.34
2023-03-11T03:46:50.472Z,97840.16
2023-03-11T03:49:16.840Z,97846.72
2023-03-11T03:51:43.175Z,97853.41
2023-03-11T03:54:09.788Z,97853.59
2023-03-11T03:56:36.449Z,97860.28
2023-03-11T03:59:03.257Z,97868.16
2023-03-11T04:01:29.635Z,97866.97
2023-03-11T04:03:56.065Z,97880.59
2023-03-11T04:06:25.385Z,97898.59
2023-03-11T04:08:53.127Z,97904.47
2023-03-11T04:11:20.797Z,97899.22
2023-03-11T04:13:47.256Z,97899.94
2023-03-11T04:16:19.979Z,97903.25
2023-03-11T04:18:46.926Z,97906.38
2023-03-11T04:21:15.995Z,97910.00
2023-03-11T04:23:42.582Z,97910.00
2023-03-11T04:26:08.989Z,97902.94
2023-03-11T04:28:35.687Z,97905.41
2023-03-11T04:31:02.506Z,97912.47
2023-03-11T04:33:30.505Z,97898.66
2023-03-11T04:35:57.814Z,97890.63
2023-03-11T04:38:24.678Z,97902.13
2023-03-11T04:40:51.259Z,97905.88
2023-03-11T04:43:17.983Z,97921.25
2023-03-11T04:45:45.415Z,97921.25
2023-03-11T04:48:13.170Z,97930.00
2023-03-11T04:50:39.601Z,97925.78
2023-03-11T04:53:06.397Z,97931.53
2023-03-11T04:55:33.107Z,97921.06
2023-03-11T04:57:59.807Z,97935.06
2023-03-11T05:00:26.462Z,97936.00
2023-03-11T05:02:53.245Z,97937.97
2023-03-11T05:05:19.755Z,97943.06
2023-03-11T05:07:46.299Z,97940.44
2023-03-11T05:10:13.128Z,97933.25
2023-03-11T05:12:39.729Z,97936.00
2023-03-11T05:15:08.976Z,97941.44
2023-03-11T05:17:35.604Z,97945.84
2023-03-11T05:20:02.374Z,97950.72
2023-03-11T05:22:29.018Z,97952.00
2023-03-11T05:24:55.461Z,97965.44
2023-03-11T05:27:22.146Z,97967.53
2023-03-11T05:29:48.804Z,97980.72
2023-03-11T05:32:15.343Z,97980.19
2023-03-11T05:34:42.236Z,97978.03
2023-03-11T05:37:09.333Z,97985.38
2023-03-11T05:39:36.042Z,97999.59
2023-03-11T05:42:02.394Z,98009.13
2023-03-11T05:44:28.812Z,98012.50
2023-03-11T05:46:55.325Z,98022.06
2023-03-11T05:49:22.370Z,98039.44
2023-03-11T05:51:50.005Z,98035.47
2023-03-11T05:54:17.315Z,98045.25
2023-03-11T05:56:45.347Z,98056.28
2023-03-11T05:59:16.275Z,98043.84
2023-03-11T06:01:44.058Z,98034.88
2023-03-11T06:04:11.920Z,98039.69
2023-03-11T06:06:39.865Z,98031.22
2023-03-11T06:09:06.319Z,98031.91
2023-03-11T06:11:32.859Z,98029.16
2023-03-11T06:13:59.202Z,98041.13
2023-03-11T06:16:26.198Z,98035.47
2023-03-11T06:18:52.914Z,98035.00
2023-03-11T06:21:22.404Z,98035.22
2023-03-11T06:23:49.845Z,98043.78
2023-03-11T06:26:19.037Z,98049.56
2023-03-11T06:28:46.449Z,98057.16
2023-03-11T06:31:18.770Z,98036.75
2023-03-11T06:33:45.899Z,98020.25
2023-03-11T06:36:16.467Z,98011.13
2023-03-11T06:38:43.325Z,98008.03
2023-03-11T06:41:10.414Z,98002.03
2023-03-11T06:43:37.076Z,98019.34
2023-03-11T06:46:18.690Z,98011.28
2023-03-11T06:48:46.236Z,98011.63
2023-03-11T06:51:14.013Z,98008.09
2023-03-11T06:53:42.908Z,98004.44
2023-03-11T06:56:13.080Z,98020.31
2023-03-11T06:58:42.357Z,98030.38
2023-03-11T07:01:17.169Z,98033.06
2023-03-11T07:03:45.335Z,98037.25
2023-03-11T07:06:14.477Z,98033.88
2023-03-11T07:08:41.231Z,98034.00
2023-03-11T07:11:14.737Z,98040.94
2023-03-11T07:13:41.823Z,98044.13
2023-03-11T07:16:23.465Z,98028.16
2023-03-11T07:18:51.387Z,98023.66
2023-03-11T07:21:20.350Z,98018.25
2023-03-11T07:23:47.133Z,98018.19
2023-03-11T07:26:17.153Z,98010.41
2023-03-11T07:28:43.871Z,98025.50
2023-03-11T07:31:14.227Z,98014.53
2023-03-11T07:33:41.258Z,98019.84
2023-03-11T07:36:14.033Z,98030.41
2023-03-11T07:38:41.944Z,98032.06
2023-03-11T07:41:11.905Z,98035.97
2023-03-11T07:43:39.454Z,98026.00
2023-03-11T07:46:14.302Z,98029.03
2023-03-11T07:48:42.562Z,98040.31
2023-03-11T07:51:21.706Z,98039.25
2023-03-11T07:53:51.819Z,98034.31
2023-03-11T07:56:20.013Z,98031.50
2023-03-11T07:58:47.963Z,98030.84
2023-03-11T08:01:17.016Z,98026.97
2023-03-11T08:03:48.328Z,98034.38
2023-03-11T08:06:22.812Z,98038.78
2023-03-11T08:08:51.470Z,98042.44
2023-03-11T08:11:19.247Z,98043.59
2023-03-11T08:13:47.079Z,98044.41
2023-03-11T08:16:19.393Z,98041.63
2023-03-11T08:18:47.471Z,98038.16
2023-03-11T08:21:16.449Z,98053.94
2023-03-11T08:23:43.190Z,98047.72
2023-03-11T08:26:13.905Z,98050.03
2023-03-11T08:28:41.168Z,98058.28
2023-03-11T08:31:25.789Z,98060.94
2023-03-11T08:34:01.088Z,98061.22
2023-03-11T08:36:30.077Z,98062.22
2023-03-11T08:38:56.957Z,98064.19
2023-03-11T08:41:25.937Z,98070.13
2023-03-11T08:43:53.594Z,98072.78
2023-03-11T08:46:32.349Z,98072.75
2023-03-11T08:49:01.213Z,98073.25
2023-03-11T08:51:29.285Z,98076.38
2023-03-11T08:53:55.872Z,98081.34
2023-03-11T08:56:22.703Z,98075.72
2023-03-11T08:58:49.478Z,98079.69
2023-03-11T09:01:16.670Z,98085.63
2023-03-11T09:03:43.360Z,98085.63
2023-03-11T09:06:14.427Z,98087.09
2023-03-11T09:08:42.514Z,98081.34
2023-03-11T09:11:10.529Z,98082.00
2023-03-11T09:13:37.483Z,98085.47
2023-03-11T09:16:04.402Z,98085.63
2023-03-11T09:18:31.174Z,98089.41
2023-03-11T09:20:57.639Z,98095.19
2023-03-11T09:23:25.050Z,98090.56
2023-03-11T09:25:51.526Z,98090.56
2023-03-11T09:28:18.175Z,98091.38
2023-03-11T09:30:45.023Z,98102.09
2023-03-11T09:33:11.611Z,98097.31
2023-03-11T09:35:39.460Z,98109.06
2023-03-11T09:38:06.003Z,98110.00
2023-03-11T09:40:55.434Z,98111.22
2023-03-11T09:43:55.614Z,98108.53
2023-03-11T09:46:56.582Z,98108.38
2023-03-11T09:49:37.365Z,98093.25
2023-03-11T09:52:10.925Z,98091.56
2023-03-11T09:54:45.860Z,98102.34
2023-03-11T09:57:19.789Z,98105.53
2023-03-11T09:59:47.934Z,98105.59
2023-03-11T10:02:24.185Z,98111.13
2023-03-11T10:05:12.730Z,98115.41
2023-03-11T10:07:47.464Z,98124.56
2023-03-11T10:10:15.516Z,98109.81
2023-03-11T10:12:54.116Z,98116.28
2023-03-11T10:15:42.404Z,98112.00
2023-03-11T10:18:47.119Z,98114.00
2023-03-11T10:21:27.412Z,98112.91
2023-03-11T10:24:14.622Z,98112.09
2023-03-11T10:26:57.809Z,98103.75
2023-03-11T10:29:31.889Z,98099.44
2023-03-11T10:32:13.485Z,98106.34
2023-03-11T10:34:47.133Z,98105.25
2023-03-11T10:37:50.156Z,98098.16
2023-03-11T10:40:26.840Z,98117.94
2023-03-11T10:42:57.609Z,98113.53
2023-03-11T10:45:25.712Z,98117.56
2023-03-11T10:47:52.112Z,98109.97
2023-03-11T10:50:20.321Z,98117.13
2023-03-11T10:53:10.464Z,98100.84
2023-03-11T10:55:57.419Z,98105.31
2023-03-11T10:58:29.688Z,98114.66
2023-03-11T11:01:14.849Z,98119.06
2023-03-11T11:03:43.439Z,98105.59
2023-03-11T11:06:34.663Z,98113.81
2023-03-11T11:09:15.935Z,98111.94
2023-03-11T11:11:59.933Z,98103.69
2023-03-11T11:14:26.698Z,98112.28
2023-03-11T11:16:53.482Z,98115.63
2023-03-11T11:19:20.297Z,98118.78
2023-03-11T11:21:50.591Z,98118.41
2023-03-11T11:24:27.715Z,98111.59
2023-03-11T11:27:04.601Z,98122.25
2023-03-11T11:29:31.829Z,98115.56
2023-03-11T11:32:15.699Z,98110.00
2023-03-11T11:34:52.807Z,98113.44
2023-03-11T11:37:20.619Z,98125.72
2023-03-11T11:39:50.382Z,98124.19
2023-03-11T11:42:19.143Z,98121.53
2023-03-11T11:44:50.859Z,98117.56
2023-03-11T11:47:24.953Z,98112.88
2023-03-11T11:50:02.198Z,98114.41
2023-03-11T11:52:37.323Z,98122.94
2023-03-11T11:55:09.089Z,98111.75
2023-03-11T11:57:35.452Z,98116.72
2023-03-11T12:00:02.557Z,98106.16
2023-03-11T12:02:45.372Z,98095.25
2023-03-11T12:05:32.281Z,98095.97
2023-03-11T12:08:04.815Z,98102.03
2023-03-11T12:10:36.975Z,98100.00
2023-03-11T12:13:33.752Z,98095.09
2023-03-11T12:16:44.472Z,98085.47
2023-03-11T12:19:21.066Z,98084.91
2023-03-11T12:22:11.439Z,98078.44
2023-03-11T12:25:18.284Z,98083.16
2023-03-11T12:27:49.699Z,98080.91
2023-03-11T12:30:25.648Z,98076.09
2023-03-11T12:32:56.717Z,98075.63
2023-03-11T12:35:29.325Z,98076.22
2023-03-11T12:38:01.565Z,98067.84
2023-03-11T12:40:48.930Z,98073.56
2023-03-11T12:43:33.648Z,98066.66
2023-03-11T12:46:02.196Z,98062.22
2023-03-11T12:48:28.721Z,98060.16
2023-03-11T12:50:56.550Z,98058.94
2023-03-11T12:53:46.091Z,98067.69
2023-03-11T12:56:34.464Z,98060.31
2023-03-11T12:59:21.499Z,98054.75
2023-03-11T13:01:53.835Z,98061.34
2023-03-11T13:04:52.349Z,98064.94
2023-03-11T13:07:36.777Z,98066.03
2023-03-11T13:10:07.628Z,98055.81
2023-03-11T13:12:42.822Z,98059.72
2023-03-11T13:15:18.290Z,98065.72
2023-03-11T13:18:12.462Z,98058.59
2023-03-11T13:20:39.058Z,98055.75
2023-03-11T13:23:14.440Z,98062.06
2023-03-11T13:25:49.897Z,98064.31
2023-03-11T13:28:44.810Z,98072.41
2023-03-11T13:31:31.046Z,98058.41
2023-03-11T13:34:40.674Z,98062.97
2023-03-11T13:37:44.910Z,98067.31
2023-03-11T13:40:41.882Z,98062.06
2023-03-11T13:43:26.627Z,98071.00
2023-03-11T13:45:58.316Z,98072.53
2023-03-11T13:48:38.115Z,98075.00
2023-03-11T13:51:16.167Z,98078.09
2023-03-11T13:53:47.823Z,98078.28
2023-03-11T13:56:22.019Z,98073.38
2023-03-11T13:58:48.946Z,98064.06
2023-03-11T14:01:17.460Z,98067.09
2023-03-11T14:03:46.418Z,98073.19
2023-03-11T14:06:20.021Z,98067.09
2023-03-11T14:08:57.885Z,98072.78
2023-03-11T14:11:29.186Z,98070.03
2023-03-11T14:13:56.166Z,98070.81
2023-03-11T14:16:31.113Z,98080.31
2023-03-11T14:19:05.220Z,98073.91
2023-03-11T14:21:31.749Z,98059.56
2023-03-11T14:23:58.287Z,98066.81
2023-03-11T14:26:29.242Z,98064.38
2023-03-11T14:29:01.312Z,98067.84
2023-03-11T14:31:40.084Z,98074.41
2023-03-11T14:34:31.855Z,98067.72
2023-03-11T14:36:59.974Z,98066.22
2023-03-11T14:39:26.359Z,98065.88
2023-03-11T14:41:58.197Z,98065.59
2023-03-11T14:44:27.991Z,98056.59
2023-03-11T14:47:16.191Z,98055.66
2023-03-11T14:49:43.740Z,98075.00
2023-03-11T14:52:37.705Z,98064.81
2023-03-11T14:55:17.967Z,98070.50
2023-03-11T14:58:15.688Z,98065.97
2023-03-11T15:00:49.261Z,98061.69
2023-03-11T15:03:25.000Z,98063.06
2023-03-11T15:06:14.038Z,98053.66
2023-03-11T15:09:03.947Z,98050.31
2023-03-11T15:11:30.618Z,98052.84
2023-03-11T15:14:17.562Z,98069.06
2023-03-11T15:16:44.036Z,98069.19
2023-03-11T15:19:28.668Z,98067.09
2023-03-11T15:21:58.171Z,98068.28
2023-03-11T15:24:27.926Z,98066.41
2023-03-11T15:27:05.701Z,98063.44
2023-03-11T15:29:34.031Z,98065.47
2023-03-11T15:32:01.085Z,98076.13
2023-03-11T15:34:28.710Z,98071.66
2023-03-11T15:36:57.239Z,98072.22
2023-03-11T15:39:32.704Z,98077.19
2023-03-11T15:42:08.215Z,98093.88
2023-03-11T15:44:40.913Z,98084.16
2023-03-11T15:47:15.706Z,98090.91
2023-03-11T15:49:42.863Z,98088.81
2023-03-11T15:52:09.915Z,98090.94
2023-03-11T15:54:36.780Z,98088.16
2023-03-11T15:57:06.816Z,98096.22
2023-03-11T15:59:35.131Z,98098.53
2023-03-11T16:02:01.520Z,98100.63
2023-03-11T16:04:29.934Z,98103.44
2023-03-11T16:07:07.585Z,98120.00
2023-03-11T16:09:34.890Z,98119.16
2023-03-11T16:12:02.438Z,98116.31
2023-03-11T16:14:28.815Z,98113.94
2023-03-11T16:16:55.654Z,98109.44
2023-03-11T16:19:23.644Z,98117.56
2023-03-11T16:21:50.607Z,98118.91
2023-03-11T16:24:22.691Z,98123.03
2023-03-11T16:26:50.373Z,98122.69
2023-03-11T16:29:19.754Z,98121.72
2023-03-11T16:31:47.130Z,98115.75
2023-03-11T16:34:13.661Z,98111.53
2023-03-11T16:36:40.456Z,98101.88
2023-03-11T16:39:06.879Z,98102.59
2023-03-11T16:41:42.277Z,98107.31
2023-03-11T16:44:09.888Z,98108.22
2023-03-11T16:46:37.170Z,98114.13
2023-03-11T16:49:04.028Z,98116.31
2023-03-11T16:51:30.896Z,98106.91
2023-03-11T16:53:59.801Z,98116.00
2023-03-11T16:56:26.477Z,98123.66
2023-03-11T16:58:52.939Z,98125.13
2023-03-11T17:01:19.750Z,98126.00
2023-03-11T17:03:47.098Z,98141.09
2023-03-11T17:06:13.503Z,98136.84
2023-03-11T17:08:40.382Z,98141.31
2023-03-11T17:11:14.816Z,98138.84
2023-03-11T17:13:41.403Z,98141.03
2023-03-11T17:16:08.029Z,98148.47
2023-03-11T17:18:34.752Z,98144.34
2023-03-11T17:21:06.586Z,98147.69
2023-03-11T17:23:34.492Z,98147.03
2023-03-11T17:26:01.777Z,98151.66
2023-03-11T17:28:28.419Z,98159.78
2023-03-11T17:30:55.063Z,98165.06
2023-03-11T17:33:21.462Z,98160.59
2023-03-11T17:35:47.867Z,98158.97
2023-03-11T17:38:16.461Z,98170.88
2023-03-11T17:40:44.082Z,98173.53
2023-03-11T17:43:10.462Z,98181.13
2023-03-11T17:45:39.014Z,98187.28
2023-03-11T17:48:05.704Z,98190.25
2023-03-11T17:50:32.161Z,98201.66
2023-03-11T17:52:58.621Z,98200.50
2023-03-11T17:55:27.470Z,98215.38
2023-03-11T17:57:53.894Z,98217.88
2023-03-11T18:00:21.268Z,98224.16
2023-03-11T18:02:47.717Z,98226.13
2023-03-11T18:05:14.104Z,98223.50
2023-03-11T18:07:40.549Z,98223.97
2023-03-11T18:10:08.534Z,98222.66
2023-03-11T18:12:35.046Z,98226.97
2023-03-11T18:15:03.309Z,98230.91
2023-03-11T18:17:30.283Z,98234.88
2023-03-11T18:19:56.793Z,98235.53
2023-03-11T18:22:23.246Z,98243.63
2023-03-11T18:24:49.608Z,98240.78
2023-03-11T18:27:15.959Z,98253.47
2023-03-11T18:29:42.369Z,98249.50
2023-03-11T18:32:09.070Z,98258.75
2023-03-11T18:34:35.511Z,98254.63
2023-03-11T18:37:02.280Z,98253.75
2023-03-11T18:39:28.821Z,98267.78
2023-03-11T18:41:55.296Z,98257.84
2023-03-11T18:44:21.690Z,98261.81
2023-03-11T18:46:48.527Z,98276.97
2023-03-11T18:49:16.145Z,98268.88
2023-03-11T18:51:42.801Z,98283.34
2023-03-11T18:54:10.576Z,98270.75
2023-03-11T18:56:37.517Z,98280.94
2023-03-11T18:59:04.273Z,98280.53
2023-03-11T19:01:31.070Z,98281.28
2023-03-11T19:04:01.725Z,98278.47
2023-03-11T19:06:29.245Z,98282.53
2023-03-11T19:08:56.001Z,98280.22
2023-03-11T19:11:24.328Z,98278.38
2023-03-11T19:13:51.496Z,98291.97
2023-03-11T19:16:21.985Z,98286.50
2023-03-11T19:18:49.144Z,98286.66
2023-03-11T19:21:16.534Z,98287.97
2023-03-11T19:23:44.099Z,98291.72
2023-03-11T19:26:10.878Z,98293.97
2023-03-11T19:28:38.875Z,98291.22
2023-03-11T19:31:08.917Z,98304.81
2023-03-11T19:33:36.654Z,98305.72
2023-03-11T19:36:05.327Z,98316.25
2023-03-11T19:38:33.848Z,98315.22
2023-03-11T19:41:01.649Z,98313.31
2023-03-11T19:43:28.768Z,98318.66
2023-03-11T19:45:56.064Z,98311.66
2023-03-11T19:48:22.761Z,98316.56
2023-03-11T19:50:50.809Z,98326.84
2023-03-11T19:53:18.230Z,98335.44
2023-03-11T19:55:50.821Z,98334.94
2023-03-11T19:58:17.475Z,98352.06
2023-03-11T20:00:44.262Z,98359.16
2023-03-11T20:03:12.176Z,98383.53
2023-03-11T20:05:42.986Z,98389.09
2023-03-11T20:08:11.056Z,98395.63
2023-03-11T20:10:39.621Z,98412.50
2023-03-11T20:13:06.872Z,98411.44
2023-03-11T20:15:33.835Z,98421.69
2023-03-11T20:18:01.199Z,98421.97
2023-03-11T20:20:28.500Z,98412.84
2023-03-11T20:22:56.055Z,98408.72
2023-03-11T20:25:23.571Z,98409.16
2023-03-11T20:27:52.326Z,98416.22
2023-03-11T20:30:19.755Z,98420.50
2023-03-11T20:32:47.810Z,98428.25
2023-03-11T20:35:15.505Z,98440.00
2023-03-11T20:37:45.403Z,98448.41
2023-03-11T20:40:14.239Z,98461.00
2023-03-11T20:42:41.331Z,98466.53
2023-03-11T20:45:08.304Z,98472.34
2023-03-11T20:47:34.944Z,98476.50
2023-03-11T20:50:01.520Z,98477.06
2023-03-11T20:52:29.271Z,98482.72
2023-03-11T20:54:56.773Z,98482.31
2023-03-11T20:57:23.476Z,98490.59
2023-03-11T20:59:50.041Z,98505.53
2023-03-11T21:02:16.681Z,98490.47
2023-03-11T21:04:44.556Z,98499.28
2023-03-11T21:07:11.009Z,98506.06
2023-03-11T21:09:37.355Z,98505.91
2023-03-11T21:12:04.408Z,98526.50
2023-03-11T21:14:30.751Z,98530.91
2023-03-11T21:16:57.506Z,98545.50
2023-03-11T21:19:24.062Z,98544.97
2023-03-11T21:21:50.399Z,98552.28
2023-03-11T21:24:17.345Z,98548.78
2023-03-11T21:26:43.780Z,98560.81
2023-03-11T21:29:10.150Z,98569.50
2023-03-11T21:31:36.674Z,98559.28
2023-03-11T21:34:03.212Z,98557.31
2023-03-11T21:36:32.381Z,98569.44
2023-03-11T21:38:59.928Z,98578.78
2023-03-11T21:41:27.748Z,98587.41
2023-03-11T21:43:55.818Z,98607.72
2023-03-11T21:46:26.434Z,98611.47
2023-03-11T21:48:53.191Z,98612.91
2023-03-11T21:51:20.789Z,98617.53
2023-03-11T21:53:48.445Z,98616.97
2023-03-11T21:56:15.586Z,98621.91
2023-03-11T21:58:42.728Z,98620.09
2023-03-11T22:01:11.032Z,98625.50
2023-03-11T22:03:39.321Z,98618.72
2023-03-11T22:06:09.030Z,98625.03
2023-03-11T22:08:35.953Z,98623.63
2023-03-11T22:11:03.580Z,98632.06
2023-03-11T22:13:30.671Z,98629.81
2023-03-11T22:15:57.594Z,98627.19
2023-03-11T22:18:24.315Z,98642.22
2023-03-11T22:20:50.843Z,98648.44
2023-03-11T22:23:17.284Z,98643.53
2023-03-11T22:25:43.803Z,98650.09
2023-03-11T22:28:10.341Z,98639.84
2023-03-11T22:30:37.159Z,98642.41
2023-03-11T22:33:03.667Z,98643.97
2023-03-11T22:35:30.040Z,98656.34
2023-03-11T22:37:56.433Z,98661.47
2023-03-11T22:40:22.979Z,98667.28
2023-03-11T22:42:49.510Z,98670.16
2023-03-11T22:45:15.974Z,98684.91
2023-03-11T22:47:42.335Z,98681.97
2023-03-11T22:50:10.079Z,98687.13
2023-03-11T22:52:36.519Z,98694.50
2023-03-11T22:55:02.910Z,98706.19
2023-03-11T22:57:29.656Z,98719.25
2023-03-11T22:59:56.114Z,98722.03
2023-03-11T23:02:22.515Z,98727.38
2023-03-11T23:04:48.912Z,98724.88
2023-03-11T23:07:15.524Z,98727.75
2023-03-11T23:09:41.878Z,98736.66
2023-03-11T23:12:08.505Z,98736.91
2023-03-11T23:14:44.535Z,98744.75
2023-03-11T23:17:12.496Z,98745.09
2023-03-11T23:19:39.039Z,98749.50
2023-03-11T23:22:05.776Z,98753.09
2023-03-11T23:24:32.257Z,98757.59
2023-03-11T23:26:58.698Z,98754.75
2023-03-11T23:29:25.265Z,98761.28
2023-03-11T23:31:51.758Z,98764.63
2023-03-11T23:34:18.076Z,98755.47
2023-03-11T23:36:44.604Z,98762.13
2023-03-11T23:39:11.119Z,98770.69
2023-03-11T23:41:39.883Z,98766.38
2023-03-11T23:44:06.525Z,98763.19
2023-03-11T23:46:34.078Z,98767.00
2023-03-11T23:49:00.645Z,98782.72
2023-03-11T23:51:27.567Z,98782.13
2023-03-11T23:53:55.724Z,98790.22
2023-03-11T23:56:22.430Z,98787.91
2023-03-11T23:58:49.073Z,98787.56
